Time,TemperatureF,DewpointF,PressureIn,WindDirection,WindDirectionDegrees,WindSpeedMPH,WindSpeedGustMPH,Humidity,HourlyPrecipIn,Conditions,Clouds,dailyrainin,SoftwareType,DateUTC
2013-02-18 00:06:00,41.7,28.4,30.23,West,270,2.2,-999.0,59,-99.99,,,0.00,Acu-Link.com,2013-02-18 05:06:00,
2013-02-18 00:21:00,40.8,28.0,30.24,WSW,247,1.7,-999.0,60,-99.99,,,0.00,Acu-Link.com,2013-02-18 05:21:00,
2013-02-18 00:37:00,39.9,28.3,30.23,SW,225,1.7,-999.0,63,-99.99,,,0.00,Acu-Link.com,2013-02-18 05:37:00,
2013-02-18 00:52:00,39.7,29.3,30.24,West,270,1.1,-999.0,66,-99.99,,,0.00,Acu-Link.com,2013-02-18 05:52:00,
2013-02-18 01:07:00,40.1,30.4,30.23,NW,315,1.1,-999.0,68,-99.99,,,0.00,Acu-Link.com,2013-02-18 06:07:00,
2013-02-18 01:22:00,39.2,29.9,30.23,SW,225,2.2,-999.0,69,-99.99,,,0.00,Acu-Link.com,2013-02-18 06:22:00,
2013-02-18 01:38:00,38.8,30.2,30.24,SSW,202,1.7,-999.0,71,-99.99,,,0.00,Acu-Link.com,2013-02-18 06:38:00,
2013-02-18 01:53:00,38.8,30.2,30.24,NNW,337,2.7,-999.0,71,-99.99,,,0.00,Acu-Link.com,2013-02-18 06:53:00,
2013-02-18 02:08:00,38.8,28.8,30.23,SW,225,1.7,-999.0,67,-99.99,,,0.00,Acu-Link.com,2013-02-18 07:08:00,
2013-02-18 02:24:00,38.5,28.5,30.23,West,270,1.7,-999.0,67,-99.99,,,0.00,Acu-Link.com,2013-02-18 07:24:00,
2013-02-18 02:39:00,38.8,29.5,30.22,West,270,2.2,-999.0,69,-99.99,,,0.00,Acu-Link.com,2013-02-18 07:39:00,
2013-02-18 02:55:00,39.0,30.1,30.22,SE,135,0.0,-999.0,70,-99.99,,,0.00,Acu-Link.com,2013-02-18 07:55:00,
2013-02-18 03:10:00,39.4,30.1,30.22,NNW,337,2.7,-999.0,69,-99.99,,,0.00,Acu-Link.com,2013-02-18 08:10:00,
2013-02-18 03:25:00,38.8,29.2,30.21,WNW,292,1.1,-999.0,68,-99.99,,,0.00,Acu-Link.com,2013-02-18 08:25:00,
2013-02-18 03:41:00,39.2,30.6,30.22,NNW,337,2.2,-999.0,71,-99.99,,,0.00,Acu-Link.com,2013-02-18 08:41:00,
2013-02-18 03:56:00,39.9,30.9,30.22,NNE,22,3.2,-999.0,70,-99.99,,,0.00,Acu-Link.com,2013-02-18 08:56:00,
2013-02-18 04:18:00,39.7,30.7,30.22,NNW,337,1.7,-999.0,70,-99.99,,,0.00,Acu-Link.com,2013-02-18 09:18:00,
2013-02-18 04:33:00,38.3,29.0,30.22,SSW,202,1.1,-999.0,69,-99.99,,,0.00,Acu-Link.com,2013-02-18 09:33:00,
2013-02-18 04:48:00,37.9,28.3,30.22,SSW,202,1.7,-999.0,68,-99.99,,,0.00,Acu-Link.com,2013-02-18 09:48:00,
2013-02-18 05:04:00,38.1,28.8,30.22,WNW,292,0.0,-999.0,69,-99.99,,,0.00,Acu-Link.com,2013-02-18 10:04:00,
2013-02-18 05:19:00,39.0,30.1,30.21,NNE,22,3.7,-999.0,70,-99.99,,,0.00,Acu-Link.com,2013-02-18 10:19:00,
2013-02-18 05:34:00,39.7,30.0,30.22,NNW,337,3.2,-999.0,68,-99.99,,,0.00,Acu-Link.com,2013-02-18 10:34:00,
2013-02-18 05:49:00,40.5,30.8,30.22,NNE,22,4.2,-999.0,68,-99.99,,,0.00,Acu-Link.com,2013-02-18 10:49:00,
2013-02-18 06:04:00,40.6,31.2,30.22,NW,315,5.3,-999.0,69,-99.99,,,0.00,Acu-Link.com,2013-02-18 11:04:00,
2013-02-18 06:20:00,40.6,31.6,30.23,NW,315,4.2,-999.0,70,-99.99,,,0.00,Acu-Link.com,2013-02-18 11:20:00,
2013-02-18 06:35:00,40.8,31.4,30.23,North,0,4.7,-999.0,69,-99.99,,,0.00,Acu-Link.com,2013-02-18 11:35:00,
2013-02-18 06:50:00,40.6,30.9,30.23,NW,315,2.7,-999.0,68,-99.99,,,0.00,Acu-Link.com,2013-02-18 11:50:00,
2013-02-18 07:05:00,40.5,30.4,30.23,NNE,22,3.2,-999.0,67,-99.99,,,0.00,Acu-Link.com,2013-02-18 12:05:00,
2013-02-18 07:21:00,42.4,31.5,30.23,NNE,22,4.7,-999.0,65,-99.99,,,0.00,Acu-Link.com,2013-02-18 12:21:00,
2013-02-18 07:36:00,46.4,33.7,30.24,NNE,22,4.7,-999.0,61,-99.99,,,0.00,Acu-Link.com,2013-02-18 12:36:00,
2013-02-18 07:51:00,48.4,33.9,30.23,NE,45,3.7,-999.0,57,-99.99,,,0.00,Acu-Link.com,2013-02-18 12:51:00,
2013-02-18 08:06:00,49.3,32.9,30.23,NNE,22,6.3,-999.0,53,-99.99,,,0.00,Acu-Link.com,2013-02-18 13:06:00,
2013-02-18 08:21:00,49.6,31.7,30.24,NNE,22,9.4,-999.0,50,-99.99,,,0.00,Acu-Link.com,2013-02-18 13:21:00,
2013-02-18 08:37:00,51.3,30.7,30.24,NE,45,6.8,-999.0,45,-99.99,,,0.00,Acu-Link.com,2013-02-18 13:37:00,
2013-02-18 08:52:00,51.4,30.2,30.24,NNE,22,8.9,-999.0,44,-99.99,,,0.00,Acu-Link.com,2013-02-18 13:52:00,
2013-02-18 09:07:00,52.7,30.8,30.24,NNE,22,7.3,-999.0,43,-99.99,,,0.00,Acu-Link.com,2013-02-18 14:07:00,
2013-02-18 09:22:00,54.5,33.6,30.24,NE,45,7.8,-999.0,45,-99.99,,,0.00,Acu-Link.com,2013-02-18 14:22:00,
2013-02-18 09:38:00,54.3,32.3,30.25,ENE,67,9.4,-999.0,43,-99.99,,,0.00,Acu-Link.com,2013-02-18 14:38:00,
2013-02-18 09:53:00,54.7,33.8,30.25,NE,45,9.4,-999.0,45,-99.99,,,0.00,Acu-Link.com,2013-02-18 14:53:00,
2013-02-18 10:08:00,56.5,36.0,30.24,NE,45,6.8,-999.0,46,-99.99,,,0.00,Acu-Link.com,2013-02-18 15:08:00,
2013-02-18 10:23:00,57.2,37.2,30.24,ENE,67,8.9,-999.0,47,-99.99,,,0.00,Acu-Link.com,2013-02-18 15:23:00,
2013-02-18 10:38:00,58.3,38.7,30.24,East,90,7.8,-999.0,48,-99.99,,,0.00,Acu-Link.com,2013-02-18 15:38:00,
2013-02-18 10:53:00,59.0,38.8,30.25,ENE,67,4.7,-999.0,47,-99.99,,,0.00,Acu-Link.com,2013-02-18 15:53:00,
2013-02-18 11:09:00,59.5,38.7,30.25,NE,45,9.9,-999.0,46,-99.99,,,0.00,Acu-Link.com,2013-02-18 16:09:00,
2013-02-18 11:24:00,60.8,41.5,30.24,East,90,10.9,-999.0,49,-99.99,,,0.00,Acu-Link.com,2013-02-18 16:24:00,
2013-02-18 11:39:00,61.2,42.4,30.24,ENE,67,7.8,-999.0,50,-99.99,,,0.00,Acu-Link.com,2013-02-18 16:39:00,
2013-02-18 11:54:00,61.7,42.3,30.23,NNE,22,9.4,-999.0,49,-99.99,,,0.00,Acu-Link.com,2013-02-18 16:54:00,
2013-02-18 12:09:00,62.2,43.3,30.22,ENE,67,9.4,-999.0,50,-99.99,,,0.00,Acu-Link.com,2013-02-18 17:09:00,
2013-02-18 12:25:00,63.0,43.5,30.21,East,90,10.9,-999.0,49,-99.99,,,0.00,Acu-Link.com,2013-02-18 17:25:00,
2013-02-18 12:40:00,63.1,43.1,30.20,East,90,6.3,-999.0,48,-99.99,,,0.00,Acu-Link.com,2013-02-18 17:40:00,
2013-02-18 12:55:00,63.9,44.4,30.18,East,90,11.9,-999.0,49,-99.99,,,0.00,Acu-Link.com,2013-02-18 17:55:00,
2013-02-18 13:11:00,64.9,44.7,30.17,ESE,112,12.5,-999.0,48,-99.99,,,0.00,Acu-Link.com,2013-02-18 18:11:00,
2013-02-18 13:26:00,65.3,46.2,30.16,ESE,112,5.8,-999.0,50,-99.99,,,0.00,Acu-Link.com,2013-02-18 18:26:00,
2013-02-18 13:41:00,66.4,46.1,30.15,East,90,8.9,-999.0,48,-99.99,,,0.00,Acu-Link.com,2013-02-18 18:41:00,
2013-02-18 13:56:00,65.5,44.7,30.14,East,90,11.9,-999.0,47,-99.99,,,0.00,Acu-Link.com,2013-02-18 18:56:00,
2013-02-18 14:12:00,67.3,46.9,30.15,ESE,112,10.9,-999.0,48,-99.99,,,0.00,Acu-Link.com,2013-02-18 19:12:00,
2013-02-18 14:27:00,67.5,46.6,30.14,ENE,67,7.3,-999.0,47,-99.99,,,0.00,Acu-Link.com,2013-02-18 19:27:00,
2013-02-18 14:42:00,67.8,46.3,30.13,ENE,67,9.9,-999.0,46,-99.99,,,0.00,Acu-Link.com,2013-02-18 19:42:00,
2013-02-18 14:57:00,68.2,47.8,30.13,NE,45,14.0,-999.0,48,-99.99,,,0.00,Acu-Link.com,2013-02-18 19:57:00,
2013-02-18 15:12:00,67.3,46.9,30.12,ESE,112,9.4,-999.0,48,-99.99,,,0.00,Acu-Link.com,2013-02-18 20:12:00,
2013-02-18 15:27:00,67.3,45.8,30.12,SSE,157,7.8,-999.0,46,-99.99,,,0.00,Acu-Link.com,2013-02-18 20:27:00,
2013-02-18 15:43:00,66.9,46.0,30.12,ESE,112,10.4,-999.0,47,-99.99,,,0.00,Acu-Link.com,2013-02-18 20:43:00,
2013-02-18 15:58:00,67.3,47.5,30.12,ESE,112,7.3,-999.0,49,-99.99,,,0.00,Acu-Link.com,2013-02-18 20:58:00,
2013-02-18 16:13:00,68.0,47.6,30.11,East,90,13.0,-999.0,48,-99.99,,,0.00,Acu-Link.com,2013-02-18 21:13:00,
2013-02-18 16:28:00,66.6,46.8,30.12,ESE,112,10.4,-999.0,49,-99.99,,,0.00,Acu-Link.com,2013-02-18 21:28:00,
2013-02-18 16:43:00,65.5,46.9,30.12,East,90,10.9,-999.0,51,-99.99,,,0.00,Acu-Link.com,2013-02-18 21:43:00,
2013-02-18 16:59:00,65.7,46.5,30.12,ESE,112,13.0,-999.0,50,-99.99,,,0.00,Acu-Link.com,2013-02-18 21:59:00,
2013-02-18 17:14:00,65.5,46.9,30.12,East,90,11.9,-999.0,51,-99.99,,,0.00,Acu-Link.com,2013-02-18 22:14:00,
2013-02-18 17:29:00,65.3,47.2,30.13,ESE,112,7.8,-999.0,52,-99.99,,,0.00,Acu-Link.com,2013-02-18 22:29:00,
2013-02-18 17:44:00,64.8,46.8,30.12,East,90,8.9,-999.0,52,-99.99,,,0.00,Acu-Link.com,2013-02-18 22:44:00,
2013-02-18 18:00:00,64.4,47.4,30.12,East,90,9.9,-999.0,54,-99.99,,,0.00,Acu-Link.com,2013-02-18 23:00:00,
2013-02-18 18:15:00,63.7,47.2,30.12,East,90,6.8,-999.0,55,-99.99,,,0.00,Acu-Link.com,2013-02-18 23:15:00,
2013-02-18 18:30:00,63.3,47.3,30.12,East,90,9.4,-999.0,56,-99.99,,,0.00,Acu-Link.com,2013-02-18 23:30:00,
2013-02-18 18:45:00,62.6,47.2,30.13,East,90,8.3,-999.0,57,-99.99,,,0.00,Acu-Link.com,2013-02-18 23:45:00,
2013-02-18 19:00:00,62.2,47.2,30.13,East,90,6.3,-999.0,58,-99.99,,,0.00,Acu-Link.com,2013-02-19 00:00:00,
2013-02-18 19:16:00,61.7,47.2,30.13,ESE,112,6.8,-999.0,59,-99.99,,,0.00,Acu-Link.com,2013-02-19 00:16:00,
2013-02-18 19:31:00,61.0,46.6,30.12,ESE,112,5.8,-999.0,59,-99.99,,,0.00,Acu-Link.com,2013-02-19 00:31:00,
2013-02-18 19:46:00,60.4,46.4,30.12,East,90,7.3,-999.0,60,-99.99,,,0.00,Acu-Link.com,2013-02-19 00:46:00,
2013-02-18 20:01:00,59.9,46.4,30.12,ESE,112,5.8,-999.0,61,-99.99,,,0.00,Acu-Link.com,2013-02-19 01:01:00,
2013-02-18 20:16:00,59.0,46.0,30.13,ESE,112,4.2,-999.0,62,-99.99,,,0.00,Acu-Link.com,2013-02-19 01:16:00,
2013-02-18 20:32:00,58.8,46.2,30.13,East,90,6.8,-999.0,63,-99.99,,,0.00,Acu-Link.com,2013-02-19 01:32:00,
2013-02-18 20:47:00,58.8,46.2,30.13,ESE,112,5.8,-999.0,63,-99.99,,,0.00,Acu-Link.com,2013-02-19 01:47:00,
2013-02-18 21:02:00,58.1,46.0,30.14,East,90,4.7,-999.0,64,-99.99,,,0.00,Acu-Link.com,2013-02-19 02:02:00,
2013-02-18 21:17:00,57.7,46.0,30.13,East,90,5.3,-999.0,65,-99.99,,,0.00,Acu-Link.com,2013-02-19 02:17:00,
2013-02-18 21:32:00,57.6,46.3,30.13,ESE,112,5.3,-999.0,66,-99.99,,,0.00,Acu-Link.com,2013-02-19 02:32:00,
2013-02-18 21:48:00,57.4,46.5,30.12,East,90,5.8,-999.0,67,-99.99,,,0.00,Acu-Link.com,2013-02-19 02:48:00,
2013-02-18 22:18:00,56.7,47.0,30.13,ESE,112,4.7,-999.0,70,-99.99,,,0.00,Acu-Link.com,2013-02-19 03:18:00,
2013-02-18 22:33:00,56.3,47.0,30.12,East,90,3.7,-999.0,71,-99.99,,,0.00,Acu-Link.com,2013-02-19 03:33:00,
2013-02-18 22:48:00,56.1,46.5,30.11,ESE,112,3.7,-999.0,70,-99.99,,,0.00,Acu-Link.com,2013-02-19 03:48:00,
2013-02-18 23:04:00,55.9,46.3,30.11,ESE,112,3.7,-999.0,70,-99.99,,,0.00,Acu-Link.com,2013-02-19 04:04:00,
2013-02-18 23:19:00,54.9,45.3,30.10,ESE,112,3.7,-999.0,70,-99.99,,,0.00,Acu-Link.com,2013-02-19 04:19:00,
2013-02-18 23:34:00,55.0,45.8,30.09,ESE,112,4.7,-999.0,71,-99.99,,,0.00,Acu-Link.com,2013-02-19 04:34:00,
2013-02-18 23:49:00,55.2,46.0,30.09,ESE,112,5.3,-999.0,71,-99.99,,,0.00,Acu-Link.com,2013-02-19 04:49:00,